sensor_id;sensor_type;location;lat;lon;timestamp;pressure;altitude;pressure_sealevel;temperature;humidity
74790;BME280;63318;52.406;13.416;2023-03-23T00:02:16;100239.07;;;11.33;65.88
74790;BME280;63318;52.406;13.416;2023-03-23T00:04:45;100239.66;;;11.29;66.11
74790;BME280;63318;52.406;13.416;2023-03-23T00:07:13;100239.48;;;11.25;66.12
74790;BME280;63318;52.406;13.416;2023-03-23T00:09:41;100229.61;;;11.20;66.22
74790;BME280;63318;52.406;13.416;2023-03-23T00:12:10;100222.09;;;11.16;66.35
74790;BME280;63318;52.406;13.416;2023-03-23T00:14:38;100222.01;;;11.11;66.33
74790;BME280;63318;52.406;13.416;2023-03-23T00:17:06;100210.55;;;11.06;66.48
74790;BME280;63318;52.406;13.416;2023-03-23T00:19:34;100214.85;;;11.03;66.65
74790;BME280;63318;52.406;13.416;2023-03-23T00:22:02;100204.98;;;10.99;66.56
74790;BME280;63318;52.406;13.416;2023-03-23T00:24:31;100203.98;;;10.94;66.72
74790;BME280;63318;52.406;13.416;2023-03-23T00:26:59;100209.33;;;10.90;66.77
74790;BME280;63318;52.406;13.416;2023-03-23T00:29:27;100208.81;;;10.88;66.82
74790;BME280;63318;52.406;13.416;2023-03-23T00:31:56;100200.70;;;10.84;67.01
74790;BME280;63318;52.406;13.416;2023-03-23T00:34:25;100197.96;;;10.81;66.99
74790;BME280;63318;52.406;13.416;2023-03-23T00:36:54;100197.21;;;10.78;67.17
74790;BME280;63318;52.406;13.416;2023-03-23T00:39:23;100193.74;;;10.74;67.36
74790;BME280;63318;52.406;13.416;2023-03-23T00:41:51;100194.71;;;10.70;67.19
74790;BME280;63318;52.406;13.416;2023-03-23T00:44:19;100191.79;;;10.66;67.57
74790;BME280;63318;52.406;13.416;2023-03-23T00:46:48;100189.20;;;10.62;67.53
74790;BME280;63318;52.406;13.416;2023-03-23T00:49:18;100184.89;;;10.59;67.68
74790;BME280;63318;52.406;13.416;2023-03-23T00:51:47;100185.92;;;10.55;67.73
74790;BME280;63318;52.406;13.416;2023-03-23T00:54:15;100186.77;;;10.52;67.94
74790;BME280;63318;52.406;13.416;2023-03-23T00:56:43;100180.86;;;10.48;68.09
74790;BME280;63318;52.406;13.416;2023-03-23T00:59:11;100175.23;;;10.43;67.93
74790;BME280;63318;52.406;13.416;2023-03-23T01:01:39;100172.24;;;10.39;68.09
74790;BME280;63318;52.406;13.416;2023-03-23T01:04:08;100172.70;;;10.36;68.21
74790;BME280;63318;52.406;13.416;2023-03-23T01:06:39;100173.02;;;10.32;68.07
74790;BME280;63318;52.406;13.416;2023-03-23T01:09:09;100170.08;;;10.29;68.25
74790;BME280;63318;52.406;13.416;2023-03-23T01:11:37;100159.84;;;10.26;68.32
74790;BME280;63318;52.406;13.416;2023-03-23T01:14:06;100160.13;;;10.22;68.49
74790;BME280;63318;52.406;13.416;2023-03-23T01:16:34;100160.80;;;10.20;68.46
74790;BME280;63318;52.406;13.416;2023-03-23T01:19:02;100154.33;;;10.17;68.58
74790;BME280;63318;52.406;13.416;2023-03-23T01:21:31;100151.64;;;10.13;68.76
74790;BME280;63318;52.406;13.416;2023-03-23T01:23:59;100149.58;;;10.11;68.58
74790;BME280;63318;52.406;13.416;2023-03-23T01:26:28;100152.85;;;10.08;68.67
74790;BME280;63318;52.406;13.416;2023-03-23T01:28:56;100151.81;;;10.05;68.80
74790;BME280;63318;52.406;13.416;2023-03-23T01:31:26;100147.16;;;10.03;69.02
74790;BME280;63318;52.406;13.416;2023-03-23T01:33:55;100149.23;;;10.01;69.07
74790;BME280;63318;52.406;13.416;2023-03-23T01:36:24;100139.76;;;9.97;68.89
74790;BME280;63318;52.406;13.416;2023-03-23T01:38:53;100137.71;;;9.94;69.07
74790;BME280;63318;52.406;13.416;2023-03-23T01:41:22;100137.77;;;9.92;69.07
74790;BME280;63318;52.406;13.416;2023-03-23T01:43:58;100138.08;;;9.88;69.13
74790;BME280;63318;52.406;13.416;2023-03-23T01:46:29;100138.65;;;9.86;69.36
74790;BME280;63318;52.406;13.416;2023-03-23T01:48:59;100141.92;;;9.85;69.17
74790;BME280;63318;52.406;13.416;2023-03-23T01:51:29;100135.16;;;9.84;69.30
74790;BME280;63318;52.406;13.416;2023-03-23T01:54:00;100135.21;;;9.84;69.22
74790;BME280;63318;52.406;13.416;2023-03-23T01:56:34;100134.71;;;9.83;69.22
74790;BME280;63318;52.406;13.416;2023-03-23T01:59:04;100126.89;;;9.84;69.37
74790;BME280;63318;52.406;13.416;2023-03-23T02:01:32;100122.95;;;9.84;69.61
74790;BME280;63318;52.406;13.416;2023-03-23T02:04:01;100122.13;;;9.85;69.40
74790;BME280;63318;52.406;13.416;2023-03-23T02:06:29;100125.34;;;9.85;69.58
74790;BME280;63318;52.406;13.416;2023-03-23T02:08:58;100130.03;;;9.88;69.87
74790;BME280;63318;52.406;13.416;2023-03-23T02:11:26;100126.02;;;9.90;69.70
74790;BME280;63318;52.406;13.416;2023-03-23T02:13:54;100120.35;;;9.92;69.69
74790;BME280;63318;52.406;13.416;2023-03-23T02:16:30;100114.19;;;9.93;69.84
74790;BME280;63318;52.406;13.416;2023-03-23T02:19:10;100109.98;;;9.93;69.79
74790;BME280;63318;52.406;13.416;2023-03-23T02:22:01;100114.02;;;9.92;69.71
74790;BME280;63318;52.406;13.416;2023-03-23T02:28:13;100113.88;;;9.89;69.84
74790;BME280;63318;52.406;13.416;2023-03-23T02:30:56;100111.61;;;9.88;69.86
74790;BME280;63318;52.406;13.416;2023-03-23T02:33:36;100107.73;;;9.89;70.09
74790;BME280;63318;52.406;13.416;2023-03-23T02:36:13;100113.20;;;9.92;70.00
74790;BME280;63318;52.406;13.416;2023-03-23T02:38:47;100109.64;;;9.93;70.08
74790;BME280;63318;52.406;13.416;2023-03-23T02:41:21;100106.40;;;9.96;69.97
74790;BME280;63318;52.406;13.416;2023-03-23T02:43:51;100103.50;;;10.00;69.96
74790;BME280;63318;52.406;13.416;2023-03-23T02:46:22;100108.80;;;10.03;69.93
74790;BME280;63318;52.406;13.416;2023-03-23T02:48:51;100114.51;;;10.07;69.94
74790;BME280;63318;52.406;13.416;2023-03-23T02:51:22;100115.27;;;10.13;69.87
74790;BME280;63318;52.406;13.416;2023-03-23T02:53:52;100105.58;;;10.20;69.95
74790;BME280;63318;52.406;13.416;2023-03-23T02:56:23;100100.05;;;10.24;69.99
74790;BME280;63318;52.406;13.416;2023-03-23T02:58:53;100099.98;;;10.27;69.81
74790;BME280;63318;52.406;13.416;2023-03-23T03:01:50;100093.45;;;10.31;69.57
74790;BME280;63318;52.406;13.416;2023-03-23T03:04:20;100098.85;;;10.36;69.58
74790;BME280;63318;52.406;13.416;2023-03-23T03:06:58;100098.84;;;10.39;69.64
74790;BME280;63318;52.406;13.416;2023-03-23T03:09:33;100094.83;;;10.42;69.57
74790;BME280;63318;52.406;13.416;2023-03-23T03:12:10;100095.80;;;10.44;69.61
74790;BME280;63318;52.406;13.416;2023-03-23T03:14:44;100093.67;;;10.47;69.55
74790;BME280;63318;52.406;13.416;2023-03-23T03:17:19;100090.59;;;10.49;69.40
74790;BME280;63318;52.406;13.416;2023-03-23T03:19:51;100090.23;;;10.52;69.47
74790;BME280;63318;52.406;13.416;2023-03-23T03:22:21;100089.83;;;10.55;69.36
74790;BME280;63318;52.406;13.416;2023-03-23T03:24:51;100092.59;;;10.58;69.30
74790;BME280;63318;52.406;13.416;2023-03-23T03:27:21;100091.23;;;10.61;69.35
74790;BME280;63318;52.406;13.416;2023-03-23T03:29:55;100084.04;;;10.62;69.25
74790;BME280;63318;52.406;13.416;2023-03-23T03:32:28;100090.04;;;10.64;69.41
74790;BME280;63318;52.406;13.416;2023-03-23T03:35:00;100085.14;;;10.65;69.43
74790;BME280;63318;52.406;13.416;2023-03-23T03:37:34;100083.18;;;10.67;69.20
74790;BME280;63318;52.406;13.416;2023-03-23T03:40:03;100086.23;;;10.68;69.37
74790;BME280;63318;52.406;13.416;2023-03-23T03:42:31;100087.05;;;10.69;69.29
74790;BME280;63318;52.406;13.416;2023-03-23T03:45:00;100084.20;;;10.70;69.35
74790;BME280;63318;52.406;13.416;2023-03-23T03:47:28;100081.54;;;10.70;69.44
74790;BME280;63318;52.406;13.416;2023-03-23T03:49:56;100077.25;;;10.70;69.37
74790;BME280;63318;52.406;13.416;2023-03-23T03:52:25;100072.59;;;10.70;69.53
74790;BME280;63318;52.406;13.416;2023-03-23T03:54:53;100066.77;;;10.69;69.93
74790;BME280;63318;52.406;13.416;2023-03-23T03:57:22;100062.89;;;10.68;69.80
74790;BME280;63318;52.406;13.416;2023-03-23T03:59:50;100069.55;;;10.67;70.24
74790;BME280;63318;52.406;13.416;2023-03-23T04:02:19;100069.23;;;10.66;70.36
74790;BME280;63318;52.406;13.416;2023-03-23T04:04:47;100073.48;;;10.64;70.39
74790;BME280;63318;52.406;13.416;2023-03-23T04:07:16;100072.48;;;10.63;70.36
74790;BME280;63318;52.406;13.416;2023-03-23T04:09:45;100073.61;;;10.62;70.63
74790;BME280;63318;52.406;13.416;2023-03-23T04:12:13;100076.40;;;10.60;70.82
74790;BME280;63318;52.406;13.416;2023-03-23T04:14:42;100070.98;;;10.58;71.02
74790;BME280;63318;52.406;13.416;2023-03-23T04:17:10;100069.04;;;10.56;71.19
74790;BME280;63318;52.406;13.416;2023-03-23T04:19:38;100066.58;;;10.54;71.17
74790;BME280;63318;52.406;13.416;2023-03-23T04:22:07;100062.64;;;10.52;71.40
74790;BME280;63318;52.406;13.416;2023-03-23T04:24:35;100061.15;;;10.50;71.49
74790;BME280;63318;52.406;13.416;2023-03-23T04:27:03;100063.05;;;10.48;71.50
74790;BME280;63318;52.406;13.416;2023-03-23T04:29:31;100071.96;;;10.47;71.35
74790;BME280;63318;52.406;13.416;2023-03-23T04:32:00;100065.20;;;10.46;71.61
74790;BME280;63318;52.406;13.416;2023-03-23T04:34:28;100052.09;;;10.44;71.62
74790;BME280;63318;52.406;13.416;2023-03-23T04:36:56;100051.10;;;10.42;71.86
74790;BME280;63318;52.406;13.416;2023-03-23T04:39:24;100055.23;;;10.41;72.11
74790;BME280;63318;52.406;13.416;2023-03-23T04:41:53;100055.91;;;10.39;72.21
74790;BME280;63318;52.406;13.416;2023-03-23T04:44:21;100045.15;;;10.37;72.18
74790;BME280;63318;52.406;13.416;2023-03-23T04:46:49;100058.17;;;10.36;72.22
74790;BME280;63318;52.406;13.416;2023-03-23T04:49:18;100066.27;;;10.35;72.17
74790;BME280;63318;52.406;13.416;2023-03-23T04:51:46;100072.21;;;10.35;72.05
74790;BME280;63318;52.406;13.416;2023-03-23T04:54:14;100078.25;;;10.36;72.08
74790;BME280;63318;52.406;13.416;2023-03-23T04:56:43;100077.14;;;10.36;71.98
74790;BME280;63318;52.406;13.416;2023-03-23T04:59:11;100077.80;;;10.37;72.13
74790;BME280;63318;52.406;13.416;2023-03-23T05:01:39;100083.84;;;10.39;71.98
74790;BME280;63318;52.406;13.416;2023-03-23T05:04:08;100083.73;;;10.40;71.91
74790;BME280;63318;52.406;13.416;2023-03-23T05:06:36;100084.05;;;10.42;72.11
74790;BME280;63318;52.406;13.416;2023-03-23T05:09:04;100081.59;;;10.44;71.90
74790;BME280;63318;52.406;13.416;2023-03-23T05:11:32;100083.52;;;10.45;72.09
74790;BME280;63318;52.406;13.416;2023-03-23T05:14:00;100082.62;;;10.46;72.30
74790;BME280;63318;52.406;13.416;2023-03-23T05:16:31;100082.73;;;10.47;72.55
74790;BME280;63318;52.406;13.416;2023-03-23T05:19:00;100083.90;;;10.45;72.58
74790;BME280;63318;52.406;13.416;2023-03-23T05:21:28;100086.19;;;10.44;72.55
74790;BME280;63318;52.406;13.416;2023-03-23T05:23:56;100088.36;;;10.43;72.59
74790;BME280;63318;52.406;13.416;2023-03-23T05:26:25;100080.54;;;10.42;72.58
74790;BME280;63318;52.406;13.416;2023-03-23T05:28:53;100084.94;;;10.42;72.54
74790;BME280;63318;52.406;13.416;2023-03-23T05:31:21;100092.27;;;10.41;72.97
74790;BME280;63318;52.406;13.416;2023-03-23T05:33:50;100089.77;;;10.41;73.00
74790;BME280;63318;52.406;13.416;2023-03-23T05:36:18;100097.66;;;10.40;73.40
74790;BME280;63318;52.406;13.416;2023-03-23T05:38:46;100094.89;;;10.39;73.61
74790;BME280;63318;52.406;13.416;2023-03-23T05:41:15;100099.69;;;10.37;73.89
74790;BME280;63318;52.406;13.416;2023-03-23T05:43:43;100098.58;;;10.36;74.09
74790;BME280;63318;52.406;13.416;2023-03-23T05:46:11;100104.54;;;10.35;74.67
74790;BME280;63318;52.406;13.416;2023-03-23T05:48:40;100108.33;;;10.32;74.94
74790;BME280;63318;52.406;13.416;2023-03-23T05:51:08;100105.85;;;10.29;75.26
74790;BME280;63318;52.406;13.416;2023-03-23T05:53:36;100107.19;;;10.27;75.50
74790;BME280;63318;52.406;13.416;2023-03-23T05:56:06;100114.88;;;10.25;75.35
74790;BME280;63318;52.406;13.416;2023-03-23T05:58:34;100116.72;;;10.23;75.92
74790;BME280;63318;52.406;13.416;2023-03-23T06:01:07;100121.50;;;10.21;76.00
74790;BME280;63318;52.406;13.416;2023-03-23T06:03:33;100117.14;;;10.19;75.84
74790;BME280;63318;52.406;13.416;2023-03-23T06:06:02;100113.27;;;10.15;76.50
74790;BME280;63318;52.406;13.416;2023-03-23T06:08:30;100119.72;;;10.13;76.40
74790;BME280;63318;52.406;13.416;2023-03-23T06:10:58;100119.23;;;10.12;76.26
74790;BME280;63318;52.406;13.416;2023-03-23T06:13:27;100126.19;;;10.11;76.79
74790;BME280;63318;52.406;13.416;2023-03-23T06:15:57;100125.81;;;10.11;77.00
74790;BME280;63318;52.406;13.416;2023-03-23T06:18:25;100130.80;;;10.10;77.13
74790;BME280;63318;52.406;13.416;2023-03-23T06:20:54;100130.80;;;10.09;77.27
74790;BME280;63318;52.406;13.416;2023-03-23T06:23:22;100136.58;;;10.09;77.36
74790;BME280;63318;52.406;13.416;2023-03-23T06:25:52;100135.54;;;10.07;77.41
74790;BME280;63318;52.406;13.416;2023-03-23T06:28:21;100135.26;;;10.07;77.54
74790;BME280;63318;52.406;13.416;2023-03-23T06:30:50;100138.31;;;10.06;78.17
74790;BME280;63318;52.406;13.416;2023-03-23T06:33:18;100139.26;;;10.06;78.26
74790;BME280;63318;52.406;13.416;2023-03-23T06:35:46;100142.42;;;10.06;78.35
74790;BME280;63318;52.406;13.416;2023-03-23T06:38:14;100141.27;;;10.06;78.52
74790;BME280;63318;52.406;13.416;2023-03-23T06:40:43;100144.50;;;10.05;78.61
74790;BME280;63318;52.406;13.416;2023-03-23T06:43:11;100148.20;;;10.05;78.67
74790;BME280;63318;52.406;13.416;2023-03-23T06:45:39;100149.20;;;10.06;78.82
74790;BME280;63318;52.406;13.416;2023-03-23T06:48:10;100146.05;;;10.06;79.65
74790;BME280;63318;52.406;13.416;2023-03-23T06:50:41;100154.35;;;10.07;79.35
74790;BME280;63318;52.406;13.416;2023-03-23T06:53:10;100152.75;;;10.08;79.23
74790;BME280;63318;52.406;13.416;2023-03-23T06:55:38;100155.96;;;10.08;79.49
74790;BME280;63318;52.406;13.416;2023-03-23T06:58:07;100154.79;;;10.09;79.50
74790;BME280;63318;52.406;13.416;2023-03-23T07:00:36;100158.17;;;10.11;79.94
74790;BME280;63318;52.406;13.416;2023-03-23T07:03:05;100159.91;;;10.12;79.87
74790;BME280;63318;52.406;13.416;2023-03-23T07:05:35;100157.13;;;10.14;79.90
74790;BME280;63318;52.406;13.416;2023-03-23T07:08:03;100154.34;;;10.16;80.08
74790;BME280;63318;52.406;13.416;2023-03-23T07:10:32;100159.05;;;10.17;80.66
74790;BME280;63318;52.406;13.416;2023-03-23T07:13:00;100156.49;;;10.18;79.99
74790;BME280;63318;52.406;13.416;2023-03-23T07:15:28;100160.80;;;10.20;80.14
74790;BME280;63318;52.406;13.416;2023-03-23T07:17:57;100162.24;;;10.21;80.28
74790;BME280;63318;52.406;13.416;2023-03-23T07:20:25;100158.53;;;10.22;80.41
74790;BME280;63318;52.406;13.416;2023-03-23T07:22:54;100158.19;;;10.23;80.80
74790;BME280;63318;52.406;13.416;2023-03-23T07:25:23;100158.96;;;10.24;80.69
74790;BME280;63318;52.406;13.416;2023-03-23T07:27:51;100152.34;;;10.24;80.51
74790;BME280;63318;52.406;13.416;2023-03-23T07:30:19;100143.47;;;10.25;80.44
74790;BME280;63318;52.406;13.416;2023-03-23T07:32:48;100136.23;;;10.26;80.66
74790;BME280;63318;52.406;13.416;2023-03-23T07:35:16;100136.52;;;10.27;80.82
74790;BME280;63318;52.406;13.416;2023-03-23T07:37:44;100141.16;;;10.29;80.91
74790;BME280;63318;52.406;13.416;2023-03-23T07:40:14;100145.32;;;10.30;80.79
74790;BME280;63318;52.406;13.416;2023-03-23T07:42:43;100150.10;;;10.31;80.95
74790;BME280;63318;52.406;13.416;2023-03-23T07:45:14;100160.40;;;10.33;81.20
74790;BME280;63318;52.406;13.416;2023-03-23T07:47:43;100156.66;;;10.35;81.47
74790;BME280;63318;52.406;13.416;2023-03-23T07:50:11;100157.03;;;10.39;81.22
74790;BME280;63318;52.406;13.416;2023-03-23T07:52:40;100143.48;;;10.42;81.25
74790;BME280;63318;52.406;13.416;2023-03-23T07:55:10;100134.84;;;10.45;81.35
74790;BME280;63318;52.406;13.416;2023-03-23T07:57:39;100129.48;;;10.48;81.25
74790;BME280;63318;52.406;13.416;2023-03-23T08:00:10;100119.41;;;10.52;81.58
74790;BME280;63318;52.406;13.416;2023-03-23T08:02:38;100104.21;;;10.55;81.74
74790;BME280;63318;52.406;13.416;2023-03-23T08:05:07;100090.98;;;10.58;81.56
74790;BME280;63318;52.406;13.416;2023-03-23T08:07:35;100087.50;;;10.61;81.91
74790;BME280;63318;52.406;13.416;2023-03-23T08:10:05;100093.70;;;10.63;81.88
74790;BME280;63318;52.406;13.416;2023-03-23T08:12:33;100101.19;;;10.65;81.79
74790;BME280;63318;52.406;13.416;2023-03-23T08:15:02;100110.56;;;10.68;81.52
74790;BME280;63318;52.406;13.416;2023-03-23T08:17:30;100127.31;;;10.70;81.42
74790;BME280;63318;52.406;13.416;2023-03-23T08:19:58;100138.35;;;10.73;81.51
74790;BME280;63318;52.406;13.416;2023-03-23T08:22:26;100141.48;;;10.77;82.10
74790;BME280;63318;52.406;13.416;2023-03-23T08:24:55;100143.83;;;10.82;82.08
74790;BME280;63318;52.406;13.416;2023-03-23T08:27:23;100146.86;;;10.85;81.72
74790;BME280;63318;52.406;13.416;2023-03-23T08:29:51;100147.45;;;10.89;81.70
74790;BME280;63318;52.406;13.416;2023-03-23T08:32:19;100145.20;;;10.91;81.87
74790;BME280;63318;52.406;13.416;2023-03-23T08:34:48;100146.27;;;10.94;82.00
74790;BME280;63318;52.406;13.416;2023-03-23T08:37:16;100151.71;;;10.96;81.94
74790;BME280;63318;52.406;13.416;2023-03-23T08:39:44;100161.97;;;10.99;81.71
74790;BME280;63318;52.406;13.416;2023-03-23T08:42:13;100165.06;;;11.01;81.84
74790;BME280;63318;52.406;13.416;2023-03-23T08:44:41;100167.55;;;11.03;81.78
74790;BME280;63318;52.406;13.416;2023-03-23T08:47:09;100164.25;;;11.05;81.75
74790;BME280;63318;52.406;13.416;2023-03-23T08:49:38;100159.05;;;11.08;81.75
74790;BME280;63318;52.406;13.416;2023-03-23T08:52:06;100154.47;;;11.11;81.58
74790;BME280;63318;52.406;13.416;2023-03-23T08:54:35;100146.83;;;11.14;81.51
74790;BME280;63318;52.406;13.416;2023-03-23T08:57:04;100129.67;;;11.17;81.61
74790;BME280;63318;52.406;13.416;2023-03-23T08:59:32;100135.67;;;11.23;81.62
74790;BME280;63318;52.406;13.416;2023-03-23T09:02:00;100135.23;;;11.27;81.53
74790;BME280;63318;52.406;13.416;2023-03-23T09:04:28;100145.36;;;11.31;81.33
74790;BME280;63318;52.406;13.416;2023-03-23T09:06:57;100154.10;;;11.36;81.28
74790;BME280;63318;52.406;13.416;2023-03-23T09:09:26;100156.92;;;11.43;81.34
74790;BME280;63318;52.406;13.416;2023-03-23T09:11:55;100155.03;;;11.54;81.53
74790;BME280;63318;52.406;13.416;2023-03-23T09:14:24;100152.52;;;11.64;81.32
74790;BME280;63318;52.406;13.416;2023-03-23T09:16:52;100158.44;;;11.71;81.21
74790;BME280;63318;52.406;13.416;2023-03-23T09:19:20;100166.16;;;11.76;81.13
74790;BME280;63318;52.406;13.416;2023-03-23T09:21:49;100172.45;;;11.80;80.95
74790;BME280;63318;52.406;13.416;2023-03-23T09:24:17;100164.21;;;11.86;80.78
74790;BME280;63318;52.406;13.416;2023-03-23T09:26:46;100153.80;;;11.91;80.69
74790;BME280;63318;52.406;13.416;2023-03-23T09:29:15;100148.45;;;11.95;80.61
74790;BME280;63318;52.406;13.416;2023-03-23T09:31:43;100144.13;;;11.98;80.54
74790;BME280;63318;52.406;13.416;2023-03-23T09:34:11;100144.25;;;12.02;80.32
74790;BME280;63318;52.406;13.416;2023-03-23T09:36:39;100146.65;;;12.05;80.27
74790;BME280;63318;52.406;13.416;2023-03-23T09:39:08;100151.47;;;12.11;80.11
74790;BME280;63318;52.406;13.416;2023-03-23T09:42:11;100153.90;;;12.17;80.09
74790;BME280;63318;52.406;13.416;2023-03-23T09:44:50;100158.14;;;12.24;79.80
74790;BME280;63318;52.406;13.416;2023-03-23T09:47:29;100155.40;;;12.33;79.79
74790;BME280;63318;52.406;13.416;2023-03-23T09:50:04;100159.84;;;12.45;79.17
74790;BME280;63318;52.406;13.416;2023-03-23T09:52:39;100160.06;;;12.57;79.07
74790;BME280;63318;52.406;13.416;2023-03-23T09:55:12;100165.29;;;12.69;78.71
74790;BME280;63318;52.406;13.416;2023-03-23T09:57:51;100169.37;;;12.81;78.34
74790;BME280;63318;52.406;13.416;2023-03-23T10:00:26;100164.52;;;12.93;77.90
74790;BME280;63318;52.406;13.416;2023-03-23T10:03:02;100168.08;;;13.03;78.13
74790;BME280;63318;52.406;13.416;2023-03-23T10:05:35;100167.17;;;13.12;77.62
74790;BME280;63318;52.406;13.416;2023-03-23T10:08:09;100170.16;;;13.19;77.66
74790;BME280;63318;52.406;13.416;2023-03-23T10:10:46;100172.14;;;13.24;76.77
74790;BME280;63318;52.406;13.416;2023-03-23T10:13:22;100167.67;;;13.28;77.05
74790;BME280;63318;52.406;13.416;2023-03-23T10:15:55;100172.12;;;13.32;76.67
74790;BME280;63318;52.406;13.416;2023-03-23T10:18:29;100165.53;;;13.35;76.66
74790;BME280;63318;52.406;13.416;2023-03-23T10:21:00;100162.40;;;13.38;76.33
74790;BME280;63318;52.406;13.416;2023-03-23T10:23:53;100162.50;;;13.42;75.71
74790;BME280;63318;52.406;13.416;2023-03-23T10:26:30;100155.08;;;13.46;75.56
74790;BME280;63318;52.406;13.416;2023-03-23T10:29:09;100154.13;;;13.50;75.51
74790;BME280;63318;52.406;13.416;2023-03-23T10:31:43;100151.27;;;13.55;75.52
74790;BME280;63318;52.406;13.416;2023-03-23T10:34:15;100154.52;;;13.59;74.51
74790;BME280;63318;52.406;13.416;2023-03-23T10:36:55;100146.11;;;13.64;74.59
74790;BME280;63318;52.406;13.416;2023-03-23T10:39:26;100150.71;;;13.72;74.33
74790;BME280;63318;52.406;13.416;2023-03-23T10:41:55;100149.02;;;13.78;74.37
74790;BME280;63318;52.406;13.416;2023-03-23T10:44:25;100146.92;;;13.82;73.35
74790;BME280;63318;52.406;13.416;2023-03-23T10:46:58;100144.71;;;13.86;73.43
74790;BME280;63318;52.406;13.416;2023-03-23T10:49:30;100148.66;;;13.90;73.43
74790;BME280;63318;52.406;13.416;2023-03-23T10:52:05;100147.88;;;13.93;73.33
74790;BME280;63318;52.406;13.416;2023-03-23T10:54:39;100141.75;;;13.94;72.44
74790;BME280;63318;52.406;13.416;2023-03-23T10:57:24;100142.50;;;13.97;73.06
74790;BME280;63318;52.406;13.416;2023-03-23T10:59:57;100135.83;;;13.97;72.02
74790;BME280;63318;52.406;13.416;2023-03-23T11:02:25;100139.53;;;13.99;72.48
74790;BME280;63318;52.406;13.416;2023-03-23T11:05:13;100140.26;;;14.02;72.35
74790;BME280;63318;52.406;13.416;2023-03-23T11:07:50;100141.95;;;14.06;72.42
74790;BME280;63318;52.406;13.416;2023-03-23T11:10:23;100143.83;;;14.10;72.09
74790;BME280;63318;52.406;13.416;2023-03-23T11:12:52;100147.00;;;14.13;71.32
74790;BME280;63318;52.406;13.416;2023-03-23T11:15:29;100152.83;;;14.15;71.66
74790;BME280;63318;52.406;13.416;2023-03-23T11:18:01;100153.09;;;14.18;71.32
74790;BME280;63318;52.406;13.416;2023-03-23T11:20:35;100158.08;;;14.22;71.31
74790;BME280;63318;52.406;13.416;2023-03-23T11:23:09;100154.39;;;14.25;71.23
74790;BME280;63318;52.406;13.416;2023-03-23T11:25:52;100155.36;;;14.30;71.12
74790;BME280;63318;52.406;13.416;2023-03-23T11:28:22;100156.06;;;14.35;71.27
74790;BME280;63318;52.406;13.416;2023-03-23T11:30:55;100153.46;;;14.38;70.87
74790;BME280;63318;52.406;13.416;2023-03-23T11:33:25;100155.27;;;14.42;70.97
74790;BME280;63318;52.406;13.416;2023-03-23T11:35:56;100154.20;;;14.47;70.54
74790;BME280;63318;52.406;13.416;2023-03-23T11:38:25;100155.79;;;14.51;69.79
74790;BME280;63318;52.406;13.416;2023-03-23T11:40:54;100160.38;;;14.56;69.99
74790;BME280;63318;52.406;13.416;2023-03-23T11:43:24;100159.46;;;14.61;70.17
74790;BME280;63318;52.406;13.416;2023-03-23T11:46:01;100158.49;;;14.67;69.50
74790;BME280;63318;52.406;13.416;2023-03-23T11:48:35;100160.56;;;14.74;69.51
74790;BME280;63318;52.406;13.416;2023-03-23T11:51:11;100158.80;;;14.80;69.00
74790;BME280;63318;52.406;13.416;2023-03-23T11:53:47;100160.52;;;14.85;69.01
74790;BME280;63318;52.406;13.416;2023-03-23T11:56:23;100160.60;;;14.91;68.25
74790;BME280;63318;52.406;13.416;2023-03-23T11:58:51;100163.98;;;14.98;68.74
74790;BME280;63318;52.406;13.416;2023-03-23T12:01:36;100166.58;;;15.06;68.56
74790;BME280;63318;52.406;13.416;2023-03-23T12:07:06;100162.59;;;15.20;66.85
74790;BME280;63318;52.406;13.416;2023-03-23T12:09:44;100167.59;;;15.24;67.20
74790;BME280;63318;52.406;13.416;2023-03-23T12:12:21;100169.66;;;15.28;67.53
74790;BME280;63318;52.406;13.416;2023-03-23T12:14:59;100173.98;;;15.34;66.82
74790;BME280;63318;52.406;13.416;2023-03-23T12:17:40;100172.93;;;15.40;66.34
74790;BME280;63318;52.406;13.416;2023-03-23T12:20:20;100170.80;;;15.46;66.18
74790;BME280;63318;52.406;13.416;2023-03-23T12:28:48;100162.23;;;15.56;65.66
74790;BME280;63318;52.406;13.416;2023-03-23T12:31:22;100157.98;;;15.60;65.06
74790;BME280;63318;52.406;13.416;2023-03-23T12:33:58;100160.92;;;15.61;65.09
74790;BME280;63318;52.406;13.416;2023-03-23T12:36:42;100155.61;;;15.63;65.20
74790;BME280;63318;52.406;13.416;2023-03-23T12:42:26;100147.77;;;15.65;63.73
74790;BME280;63318;52.406;13.416;2023-03-23T12:45:00;100142.36;;;15.65;64.67
74790;BME280;63318;52.406;13.416;2023-03-23T12:47:39;100140.27;;;15.67;64.40
74790;BME280;63318;52.406;13.416;2023-03-23T12:50:15;100140.54;;;15.67;64.21
74790;BME280;63318;52.406;13.416;2023-03-23T12:52:48;100141.83;;;15.70;64.26
74790;BME280;63318;52.406;13.416;2023-03-23T12:55:23;100131.26;;;15.73;64.44
74790;BME280;63318;52.406;13.416;2023-03-23T12:57:56;100122.95;;;15.77;63.85
74790;BME280;63318;52.406;13.416;2023-03-23T13:00:28;100110.59;;;15.76;62.59
74790;BME280;63318;52.406;13.416;2023-03-23T13:03:02;100096.02;;;15.76;62.68
74790;BME280;63318;52.406;13.416;2023-03-23T13:05:38;100124.23;;;15.77;63.24
74790;BME280;63318;52.406;13.416;2023-03-23T13:08:14;100143.27;;;15.81;61.59
74790;BME280;63318;52.406;13.416;2023-03-23T13:10:47;100150.90;;;15.88;62.13
74790;BME280;63318;52.406;13.416;2023-03-23T13:13:19;100146.45;;;15.98;61.28
74790;BME280;63318;52.406;13.416;2023-03-23T13:16:01;100137.63;;;16.11;60.88